Flugplatz Dortmund

Bericht für EDLW

vom 27.04. um 05:50 UTC

Wind 6 kt aus 160°

Sichtweite 10 km oder mehr

gute Sicht, keine Wolken < 5000 ft, keine CB, keine Wettererscheinungen (CAVOK)

Temperatur 6.0°C

Taupunkt 2.0°C

Luftfeuchtigkeit 75%

Luftdruck 1014 hPa

EDLW 270550Z 16006KT CAVOK 06/02 Q1014

Prognose für EDLW

vom 27.04. um 05:00 UTC

Zwischen 06:00 UTC und 13:00 UTC

Wind 8 kt aus 180°

Sichtweite 10 km oder mehr

keine signifikanten Wettererscheinungen

keine Wolken


Zwischen 13:00 und 16:00 UTC übergehend zu

Wind 6 kt aus 60°

Sichtweite 10 km oder mehr

keine signifikanten Wettererscheinungen

keine Wolken


Zwischen 20:00 und 22:00 UTC übergehend zu

Wind 6 kt aus 180°

Sichtweite 10 km oder mehr

keine signifikanten Wettererscheinungen

keine Wolken

TAF EDLW 270500Z 2706/2806 18008KT CAVOK BECMG 2713/2716 06006KT BECMG 2720/2722 18006KT
Impressum